Time;durP1;ratioP1;P1;durP2;ratioP2;P2;SDS_P1;SDS_P2;PMS_P1;PMS_P2;Temp;Humidity;BMP_temperature;BMP_pressure;BME280_temperature;BME280_humidity;BME280_pressure;Samples;Min_cycle;Max_cycle;Signal;HPM_P1;HPM_P2
2022/07/14 00:00:39;;;;;;;20.15;19.05;;;;;;;-141.02;100.00;55844.97;5073510;28;20292;-73
2022/07/14 00:03:07;;;;;;;20.15;18.95;;;;;;;-141.02;100.00;55844.97;5073477;28;20195;-74
2022/07/14 00:05:35;;;;;;;21.25;20.05;;;;;;;-141.02;100.00;55844.97;5073064;28;20624;-73
2022/07/14 00:08:02;;;;;;;21.10;19.90;;;;;;;-141.02;100.00;55844.97;5073370;28;20190;-72
2022/07/14 00:10:29;;;;;;;21.52;20.33;;;;;;;-141.02;100.00;55844.97;5073322;28;20316;-73
2022/07/14 00:12:56;;;;;;;20.73;19.52;;;;;;;-141.02;100.00;55844.97;5072991;28;20281;-74
2022/07/14 00:15:23;;;;;;;21.20;20.00;;;;;;;-141.02;100.00;55844.97;5073157;28;20249;-74
2022/07/14 00:17:51;;;;;;;21.02;19.83;;;;;;;-141.02;100.00;55844.97;5073920;28;20281;-75
2022/07/14 00:20:19;;;;;;;21.52;20.33;;;;;;;-141.02;100.00;55844.97;5072815;28;20205;-74
2022/07/14 00:22:46;;;;;;;22.10;20.80;;;;;;;-141.02;100.00;55844.97;5072709;28;20229;-75
2022/07/14 00:25:14;;;;;;;21.42;20.23;;;;;;;-141.02;100.00;55844.97;5073018;28;20217;-75
2022/07/14 00:27:41;;;;;;;21.45;20.15;;;;;;;-141.02;100.00;55844.97;5073522;28;20246;-74
2022/07/14 00:30:10;;;;;;;21.75;20.45;;;;;;;-141.02;100.00;55844.97;5073177;28;20205;-74
2022/07/14 00:32:37;;;;;;;22.48;21.17;;;;;;;-141.02;100.00;55844.97;5072568;28;20198;-74
2022/07/14 00:35:05;;;;;;;21.45;20.17;;;;;;;-141.02;100.00;55844.97;5072499;28;20665;-74
2022/07/14 00:37:33;;;;;;;20.10;18.90;;;;;;;-141.02;100.00;55844.97;5072467;28;20270;-74
2022/07/14 00:40:03;;;;;;;20.85;19.65;;;;;;;-141.02;100.00;55844.97;5072763;28;20204;-74
2022/07/14 00:42:33;;;;;;;20.25;19.05;;;;;;;-141.02;100.00;55844.97;5072407;28;20544;-74
2022/07/14 00:45:01;;;;;;;21.33;20.13;;;;;;;-141.02;100.00;55844.97;5072442;28;20202;-75
2022/07/14 00:47:28;;;;;;;20.33;19.13;;;;;;;-141.02;100.00;55844.97;5072384;28;20230;-74
2022/07/14 00:49:56;;;;;;;19.50;18.40;;;;;;;-141.02;100.00;55844.97;5072887;28;20225;-74
2022/07/14 00:52:25;;;;;;;19.83;18.63;;;;;;;-141.02;100.00;55844.97;5072630;28;20230;-74
2022/07/14 00:54:54;;;;;;;19.83;18.70;;;;;;;-141.02;100.00;55844.97;5072820;28;20687;-74
2022/07/14 00:57:22;;;;;;;19.30;18.20;;;;;;;-141.02;100.00;55844.97;5071875;28;20704;-75
2022/07/14 00:59:49;;;;;;;19.10;18.00;;;;;;;-141.02;100.00;55844.97;5072518;28;20202;-74
2022/07/14 01:02:18;;;;;;;19.17;18.08;;;;;;;-141.02;100.00;55844.97;5072452;28;20190;-74
2022/07/14 01:04:45;;;;;;;19.50;18.40;;;;;;;-141.02;100.00;55844.97;5072695;28;20205;-74
2022/07/14 01:07:12;;;;;;;18.95;17.85;;;;;;;-141.02;100.00;55844.97;5072123;28;20661;-74
2022/07/14 01:09:39;;;;;;;19.63;18.52;;;;;;;-141.02;100.00;55844.97;5072373;28;20233;-75
2022/07/14 01:12:09;;;;;;;19.05;18.05;;;;;;;-141.02;100.00;55844.97;5072372;28;20273;-74
2022/07/14 01:14:37;;;;;;;18.50;17.50;;;;;;;-141.02;100.00;55844.97;5072297;28;20199;-74
2022/07/14 01:17:05;;;;;;;18.42;17.42;;;;;;;-141.02;100.00;55844.97;5071933;28;20313;-74
2022/07/14 01:19:34;;;;;;;18.75;17.75;;;;;;;-141.02;100.00;55844.97;5071961;28;20200;-74
2022/07/14 01:22:03;;;;;;;18.90;17.90;;;;;;;-141.02;100.00;55844.97;5072245;28;20297;-74
2022/07/14 01:24:30;;;;;;;18.70;17.70;;;;;;;-141.02;100.00;55844.97;5071955;28;20244;-75
2022/07/14 01:26:58;;;;;;;18.85;17.85;;;;;;;-141.02;100.00;55844.97;5071928;28;20409;-73
2022/07/14 01:29:26;;;;;;;19.23;18.13;;;;;;;-141.02;100.00;55844.97;5072197;28;20329;-75
2022/07/14 01:31:53;;;;;;;19.40;18.30;;;;;;;-141.02;100.00;55844.97;5071821;28;20194;-75
2022/07/14 01:34:20;;;;;;;19.70;18.60;;;;;;;-141.02;100.00;55844.97;5072823;28;20190;-75
2022/07/14 01:36:49;;;;;;;19.70;18.60;;;;;;;-141.02;100.00;55844.97;5075929;28;20317;-74
2022/07/14 01:39:18;;;;;;;18.77;17.77;;;;;;;-141.02;100.00;55844.97;5076217;28;20234;-74
2022/07/14 01:41:45;;;;;;;18.65;17.65;;;;;;;-141.02;100.00;55844.97;5075899;28;20194;-74
2022/07/14 01:44:13;;;;;;;19.38;18.27;;;;;;;-141.02;100.00;55844.97;5076147;28;20205;-74
2022/07/14 01:46:40;;;;;;;19.30;18.20;;;;;;;-141.02;100.00;55844.97;5076110;28;20225;-73
2022/07/14 01:49:07;;;;;;;19.77;18.67;;;;;;;-141.02;100.00;55844.97;5075761;28;20575;-74
2022/07/14 01:51:35;;;;;;;19.70;18.60;;;;;;;-141.02;100.00;55844.97;5075759;28;20731;-73
2022/07/14 01:54:04;;;;;;;20.35;19.25;;;;;;;-141.02;100.00;55844.97;5075677;28;20289;-73
2022/07/14 01:56:32;;;;;;;19.85;18.75;;;;;;;-141.02;100.00;55844.97;5075514;28;20240;-74
2022/07/14 01:59:00;;;;;;;19.73;18.63;;;;;;;-141.02;100.00;55844.97;5076384;28;20190;-74
2022/07/14 02:01:42;;;;;;;19.45;18.35;;;;;;;-141.02;100.00;55844.97;5075503;28;20205;-74
2022/07/14 02:04:11;;;;;;;19.90;18.80;;;;;;;-141.02;100.00;55844.97;5075502;28;20186;-75
2022/07/14 02:06:38;;;;;;;19.50;18.40;;;;;;;-141.02;100.00;55844.97;5075389;28;20204;-75
2022/07/14 02:09:06;;;;;;;18.98;17.88;;;;;;;-141.02;100.00;55844.97;5076463;28;20202;-75
2022/07/14 02:14:19;;;;;;;18.80;17.80;;;;;;;-141.02;100.00;55844.97;5076234;28;20263;-75
2022/07/14 02:16:46;;;;;;;18.77;17.77;;;;;;;-141.02;100.00;55844.97;5075390;28;20222;-75
2022/07/14 02:19:13;;;;;;;18.40;17.40;;;;;;;-141.02;100.00;55844.97;5075177;28;20285;-75
2022/07/14 02:21:41;;;;;;;17.52;16.63;;;;;;;-141.02;100.00;55844.97;5075429;28;20199;-75
2022/07/14 02:24:09;;;;;;;17.50;16.60;;;;;;;-141.02;100.00;55844.97;5075366;28;20281;-75
2022/07/14 02:26:38;;;;;;;16.73;15.93;;;;;;;-141.02;100.00;55844.97;5076109;28;20225;-75
2022/07/14 02:29:06;;;;;;;16.15;15.45;;;;;;;-141.02;100.00;55844.97;5075733;28;20199;-75
2022/07/14 02:31:33;;;;;;;16.30;15.50;;;;;;;-141.02;100.00;55844.97;5074980;28;20286;-75
2022/07/14 02:34:00;;;;;;;16.08;15.38;;;;;;;-141.02;100.00;55844.97;5074851;28;20198;-75
2022/07/14 02:36:27;;;;;;;16.50;15.70;;;;;;;-141.02;100.00;55844.97;5074824;28;20734;-75
2022/07/14 02:38:54;;;;;;;16.60;15.80;;;;;;;-141.02;100.00;55844.97;5074798;28;20197;-75
2022/07/14 02:41:22;;;;;;;16.52;15.73;;;;;;;-141.02;100.00;55844.97;5075359;28;20271;-75
2022/07/14 02:43:50;;;;;;;16.40;15.60;;;;;;;-141.02;100.00;55844.97;5074738;28;20194;-75
2022/07/14 02:46:17;;;;;;;16.60;15.80;;;;;;;-141.02;100.00;55844.97;5074721;28;20718;-75
2022/07/14 02:48:44;;;;;;;17.33;16.52;;;;;;;-141.02;100.00;55844.97;5074978;28;20278;-75
2022/07/14 02:51:11;;;;;;;17.05;16.25;;;;;;;-141.02;100.00;55844.97;5074880;28;20241;-75
2022/07/14 02:53:38;;;;;;;17.00;16.20;;;;;;;-141.02;100.00;55844.97;5074881;28;20286;-75
2022/07/14 02:56:06;;;;;;;16.48;15.77;;;;;;;-141.02;100.00;55844.97;5074198;28;20285;-74
2022/07/14 02:58:34;;;;;;;17.10;16.30;;;;;;;-141.02;100.00;55844.97;5074815;28;20270;-74
2022/07/14 03:01:06;;;;;;;16.77;15.98;;;;;;;-141.02;100.00;55844.97;5074722;28;20386;-75
2022/07/14 03:03:34;;;;;;;16.27;15.57;;;;;;;-141.02;100.00;55844.97;5074383;28;20187;-75
2022/07/14 03:06:07;;;;;;;16.38;15.68;;;;;;;-141.02;100.00;55844.97;5074635;28;20199;-75
2022/07/14 03:08:34;;;;;;;17.02;16.23;;;;;;;-141.02;100.00;55844.97;5074617;28;20265;-75
2022/07/14 03:11:01;;;;;;;16.55;15.85;;;;;;;-141.02;100.00;55844.97;5074215;28;20191;-75
2022/07/14 03:13:28;;;;;;;16.50;15.80;;;;;;;-141.02;100.00;55844.97;5074494;28;20198;-75
2022/07/14 03:15:55;;;;;;;16.27;15.57;;;;;;;-141.02;100.00;55844.97;5074438;28;20256;-75
2022/07/14 03:18:24;;;;;;;16.98;16.27;;;;;;;-141.02;100.00;55844.97;5074341;28;20240;-75
2022/07/14 03:20:51;;;;;;;16.63;15.82;;;;;;;-141.02;100.00;55844.97;5074024;28;20210;-75
2022/07/14 03:23:18;;;;;;;16.88;16.08;;;;;;;-141.02;100.00;55844.97;5074567;28;20273;-75
2022/07/14 03:25:46;;;;;;;16.40;15.63;;;;;;;-141.02;100.00;55844.97;5073913;28;20661;-75
2022/07/14 03:28:14;;;;;;;17.25;16.45;;;;;;;-141.02;100.00;55844.97;5073948;28;20673;-75
2022/07/14 03:30:41;;;;;;;16.70;15.90;;;;;;;-141.02;100.00;55844.97;5074379;28;20198;-75
2022/07/14 03:33:08;;;;;;;16.67;15.88;;;;;;;-141.02;100.00;55844.97;5074080;28;20195;-76
2022/07/14 03:35:39;;;;;;;17.13;16.33;;;;;;;-141.02;100.00;55844.97;5074353;28;20217;-75
2022/07/14 03:38:06;;;;;;;15.93;15.23;;;;;;;-141.02;100.00;55844.97;5073929;28;20219;-75
2022/07/14 03:40:34;;;;;;;15.77;15.07;;;;;;;-141.02;100.00;55844.97;5073685;28;20197;-75
2022/07/14 03:43:01;;;;;;;16.48;15.77;;;;;;;-141.02;100.00;55844.97;5073605;28;20194;-75
2022/07/14 03:45:29;;;;;;;16.90;16.10;;;;;;;-141.02;100.00;55844.97;5073885;28;20205;-76
2022/07/14 03:47:56;;;;;;;17.48;16.58;;;;;;;-141.02;100.00;55844.97;5073506;28;20209;-75
2022/07/14 03:50:23;;;;;;;17.50;16.60;;;;;;;-141.02;100.00;55844.97;5073775;28;20208;-75
2022/07/14 03:52:52;;;;;;;18.02;17.13;;;;;;;-141.02;100.00;55844.97;5073695;28;20238;-75
2022/07/14 03:55:19;;;;;;;17.75;16.85;;;;;;;-141.02;100.00;55844.97;5073288;28;20578;-75
2022/07/14 03:57:46;;;;;;;18.23;17.23;;;;;;;-141.02;100.00;55844.97;5072589;28;20234;-76
2022/07/14 04:00:14;;;;;;;17.77;16.77;;;;;;;-141.02;100.00;55844.97;5073247;28;20190;-75
2022/07/14 04:02:41;;;;;;;18.13;17.13;;;;;;;-141.02;100.00;55844.97;5073205;28;20230;-75
2022/07/14 04:05:08;;;;;;;18.48;17.38;;;;;;;-141.02;100.00;55844.97;5073115;28;20732;-75
2022/07/14 04:07:35;;;;;;;18.35;17.25;;;;;;;-141.02;100.00;55844.97;5073102;28;20290;-75
2022/07/14 04:10:04;;;;;;;17.85;16.85;;;;;;;-141.02;100.00;55844.97;5073265;28;20582;-75
2022/07/14 04:12:31;;;;;;;18.35;17.25;;;;;;;-141.02;100.00;55844.97;5073262;28;20248;-75
2022/07/14 04:14:58;;;;;;;18.15;17.05;;;;;;;-141.02;100.00;55844.97;5072962;28;20791;-81
2022/07/14 04:17:25;;;;;;;18.35;17.23;;;;;;;-141.02;100.00;55844.97;5072811;28;20266;-75
2022/07/14 04:19:52;;;;;;;18.17;16.98;;;;;;;-141.02;100.00;55844.97;5073113;28;20263;-75
2022/07/14 04:22:19;;;;;;;18.63;17.52;;;;;;;-141.02;100.00;55844.97;5073095;28;20216;-75
2022/07/14 04:24:46;;;;;;;18.85;17.75;;;;;;;-141.02;100.00;55844.97;5073040;28;20608;-75
2022/07/14 04:27:15;;;;;;;19.05;17.85;;;;;;;-141.02;100.00;55844.97;5073015;28;20681;-74
2022/07/14 04:29:42;;;;;;;20.20;19.00;;;;;;;-141.02;100.00;55844.97;5072942;28;20647;-75
2022/07/14 04:32:10;;;;;;;19.73;18.52;;;;;;;-141.02;100.00;55844.97;5072968;28;20208;-75
2022/07/14 04:34:37;;;;;;;19.42;18.23;;;;;;;-141.02;100.00;55844.97;5072816;28;20202;-75
2022/07/14 04:37:04;;;;;;;20.77;19.48;;;;;;;-141.02;100.00;55844.97;5072759;28;20226;-75
2022/07/14 04:39:31;;;;;;;20.45;19.15;;;;;;;-141.02;100.00;55844.97;5072561;28;20665;-75
2022/07/14 04:41:58;;;;;;;20.75;19.45;;;;;;;-141.02;100.00;55844.97;5072465;28;20289;-75
2022/07/14 04:44:26;;;;;;;20.90;19.60;;;;;;;-141.02;100.00;55844.97;5072773;28;20194;-75
2022/07/14 04:46:53;;;;;;;20.80;19.50;;;;;;;-141.02;100.00;55844.97;5072962;28;20199;-75
2022/07/14 04:52:05;;;;;;;19.98;18.77;;;;;;;-141.02;100.00;55844.97;5072997;28;20213;-75
2022/07/14 04:54:34;;;;;;;20.95;19.65;;;;;;;-141.02;100.00;55844.97;5072602;28;20289;-74
2022/07/14 04:57:03;;;;;;;20.48;19.17;;;;;;;-141.02;100.00;55844.97;5072244;28;20241;-73
2022/07/14 04:59:32;;;;;;;20.02;18.73;;;;;;;-141.02;100.00;55844.97;5072481;28;20194;-75
2022/07/14 05:02:00;;;;;;;19.92;18.73;;;;;;;-141.02;100.00;55844.97;5073358;28;20206;-74
2022/07/14 05:04:28;;;;;;;19.55;18.35;;;;;;;-141.02;100.00;55844.97;5072388;28;20247;-75
2022/07/14 05:06:55;;;;;;;19.60;18.40;;;;;;;-141.02;100.00;55844.97;5072469;28;20309;-75
2022/07/14 05:09:25;;;;;;;19.60;18.40;;;;;;;-141.02;100.00;55844.97;5072350;28;20190;-74
2022/07/14 05:11:52;;;;;;;20.52;19.33;;;;;;;-141.02;100.00;55844.97;5072091;28;20202;-75
2022/07/14 05:14:19;;;;;;;19.63;18.42;;;;;;;-141.02;100.00;55844.97;5072386;28;20202;-74
2022/07/14 05:16:48;;;;;;;19.50;18.33;;;;;;;-141.02;100.00;55844.97;5072015;28;20282;-75
2022/07/14 05:19:16;;;;;;;18.67;17.52;;;;;;;-141.02;100.00;55844.97;5072551;28;20199;-75
2022/07/14 05:21:43;;;;;;;19.42;18.33;;;;;;;-141.02;100.00;55844.97;5072513;28;20621;-75
2022/07/14 05:24:11;;;;;;;19.98;18.77;;;;;;;-141.02;100.00;55844.97;5071948;28;20202;-75
2022/07/14 05:26:38;;;;;;;19.67;18.48;;;;;;;-141.02;100.00;55844.97;5071937;28;20285;-75
2022/07/14 05:29:05;;;;;;;20.63;19.42;;;;;;;-141.02;100.00;55844.97;5072221;28;20576;-74
2022/07/14 05:31:32;;;;;;;19.88;18.67;;;;;;;-141.02;100.00;55844.97;5071894;28;20653;-75
2022/07/14 05:34:01;;;;;;;19.88;18.67;;;;;;;-141.02;100.00;55844.97;5072124;28;20202;-74
2022/07/14 05:36:28;;;;;;;19.17;18.08;;;;;;;-141.02;100.00;55844.97;5071885;28;20575;-75
2022/07/14 05:38:55;;;;;;;19.38;18.27;;;;;;;-141.02;100.00;55844.97;5071900;28;20313;-74
2022/07/14 05:41:22;;;;;;;18.65;17.55;;;;;;;-141.02;100.00;55844.97;5071768;28;20225;-74
2022/07/14 05:43:50;;;;;;;19.73;18.63;;;;;;;-141.02;100.00;55844.97;5071757;28;20605;-74
2022/07/14 05:46:17;;;;;;;19.52;18.42;;;;;;;-141.02;100.00;55844.97;5072052;28;20285;-73
2022/07/14 05:48:44;;;;;;;19.42;18.33;;;;;;;-141.02;100.00;55844.97;5071719;28;20285;-74
2022/07/14 05:51:14;;;;;;;18.70;17.70;;;;;;;-141.02;100.00;55844.97;5071963;28;20273;-72
2022/07/14 05:53:43;;;;;;;18.45;17.45;;;;;;;-141.02;100.00;55844.97;5071736;28;20189;-73
2022/07/14 05:56:11;;;;;;;18.60;17.60;;;;;;;-141.02;100.00;55844.97;5071637;28;20594;-74
2022/07/14 05:58:41;;;;;;;18.40;17.40;;;;;;;-141.02;100.00;55844.97;5071944;28;20301;-74
2022/07/14 06:01:09;;;;;;;18.30;17.30;;;;;;;-141.02;100.00;55844.97;5072376;28;20202;-75
2022/07/14 06:03:36;;;;;;;18.90;17.90;;;;;;;-141.02;100.00;55844.97;5071521;28;20620;-72
2022/07/14 06:06:07;;;;;;;17.88;16.88;;;;;;;-141.02;100.00;55844.97;5071505;28;20286;-74
2022/07/14 06:08:36;;;;;;;18.33;17.33;;;;;;;-141.02;100.00;55844.97;5071820;28;20602;-74
2022/07/14 06:11:04;;;;;;;17.92;17.02;;;;;;;-141.02;100.00;55844.97;5071488;28;20226;-72
2022/07/14 06:13:32;;;;;;;18.08;17.17;;;;;;;-141.02;100.00;55844.97;5071669;28;20285;-73
2022/07/14 06:15:59;;;;;;;17.83;16.90;;;;;;;-141.02;100.00;55844.97;5071805;28;20271;-73
2022/07/14 06:18:27;;;;;;;18.63;17.63;;;;;;;-141.02;100.00;55844.97;5071881;28;20226;-72
2022/07/14 06:20:54;;;;;;;18.90;17.90;;;;;;;-141.02;100.00;55844.97;5073354;28;20660;-73
2022/07/14 06:23:21;;;;;;;18.40;17.40;;;;;;;-141.02;100.00;55844.97;5075472;28;20195;-72
2022/07/14 06:25:50;;;;;;;19.27;18.27;;;;;;;-141.02;100.00;55844.97;5075396;28;20277;-73
2022/07/14 06:28:17;;;;;;;19.25;18.25;;;;;;;-141.02;100.00;55844.97;5075382;28;20221;-75
2022/07/14 06:30:44;;;;;;;19.58;18.48;;;;;;;-141.02;100.00;55844.97;5075292;28;20607;-73
2022/07/14 06:33:12;;;;;;;19.48;18.38;;;;;;;-141.02;100.00;55844.97;5074938;28;20201;-72
2022/07/14 06:35:39;;;;;;;19.25;18.15;;;;;;;-141.02;100.00;55844.97;5074888;28;20285;-74
2022/07/14 06:38:07;;;;;;;19.30;18.20;;;;;;;-141.02;100.00;55844.97;5074748;28;20234;-72
2022/07/14 06:40:34;;;;;;;19.90;18.80;;;;;;;-141.02;100.00;55844.97;5074823;28;20209;-72
2022/07/14 06:43:02;;;;;;;19.50;18.30;;;;;;;-141.02;100.00;55844.97;5074716;28;20194;-74
2022/07/14 06:45:29;;;;;;;20.73;19.52;;;;;;;-141.02;100.00;55844.97;5074793;28;20289;-74
2022/07/14 06:47:56;;;;;;;20.45;19.25;;;;;;;-141.02;100.00;55844.97;5075035;28;20644;-74
2022/07/14 06:50:24;;;;;;;19.60;18.50;;;;;;;-141.02;100.00;55844.97;5074902;28;20198;-72
2022/07/14 06:52:51;;;;;;;20.52;19.38;;;;;;;-141.02;100.00;55844.97;5074844;28;20719;-72
2022/07/14 06:55:18;;;;;;;20.10;18.90;;;;;;;-141.02;100.00;55844.97;5074790;28;20285;-74
2022/07/14 06:57:45;;;;;;;20.48;19.27;;;;;;;-141.02;100.00;55844.97;5074371;28;20244;-72
2022/07/14 07:00:15;;;;;;;20.08;18.88;;;;;;;-141.02;100.00;55844.97;5074433;28;20613;-74
2022/07/14 07:02:42;;;;;;;20.05;18.85;;;;;;;-141.02;100.00;55844.97;5074440;28;20197;-74
2022/07/14 07:07:57;;;;;;;20.50;19.23;;;;;;;-141.02;100.00;55844.97;5074522;28;20663;-75
2022/07/14 07:10:24;;;;;;;20.75;19.50;;;;;;;-141.02;100.00;55844.97;5074272;28;20653;-75
2022/07/14 07:12:52;;;;;;;21.13;19.83;;;;;;;-141.02;100.00;55844.97;5074189;28;20198;-75
2022/07/14 07:15:21;;;;;;;20.30;19.10;;;;;;;-141.02;100.00;55844.97;5074790;28;20203;-75
2022/07/14 07:17:48;;;;;;;20.13;18.92;;;;;;;-141.02;100.00;55844.97;5074074;28;20253;-72
2022/07/14 07:20:16;;;;;;;19.60;18.40;;;;;;;-141.02;100.00;55844.97;5074090;28;20205;-72
2022/07/14 07:22:43;;;;;;;19.75;18.55;;;;;;;-141.02;100.00;55844.97;5074322;28;20217;-71
2022/07/14 07:25:12;;;;;;;19.65;18.45;;;;;;;-141.02;100.00;55844.97;5074319;28;20202;-73
2022/07/14 07:27:39;;;;;;;20.08;18.88;;;;;;;-141.02;100.00;55844.97;5074289;28;20191;-73
2022/07/14 07:30:08;;;;;;;19.95;18.75;;;;;;;-141.02;100.00;55844.97;5073901;28;20230;-73
2022/07/14 07:32:37;;;;;;;20.00;18.80;;;;;;;-141.02;100.00;55844.97;5072745;28;20665;-73
2022/07/14 07:35:05;;;;;;;19.55;18.35;;;;;;;-141.02;100.00;55844.97;5074043;28;20637;-74
2022/07/14 07:37:32;;;;;;;19.40;18.30;;;;;;;-141.02;100.00;55844.97;5074092;28;20201;-72
2022/07/14 07:40:00;;;;;;;19.50;18.40;;;;;;;-141.02;100.00;55844.97;5073631;28;20205;-72
2022/07/14 07:42:28;;;;;;;20.20;19.00;;;;;;;-141.02;100.00;55844.97;5073861;28;20241;-74
2022/07/14 07:44:55;;;;;;;19.85;18.67;;;;;;;-141.02;100.00;55844.97;5073885;28;20691;-74
2022/07/14 07:47:24;;;;;;;19.55;18.38;;;;;;;-141.02;100.00;55844.97;5074118;28;20256;-74
2022/07/14 07:49:53;;;;;;;19.15;18.05;;;;;;;-141.02;100.00;55844.97;5073715;28;20572;-71
2022/07/14 07:52:21;;;;;;;19.38;18.27;;;;;;;-141.02;100.00;55844.97;5073378;28;20238;-74
2022/07/14 07:54:48;;;;;;;19.75;18.65;;;;;;;-141.02;100.00;55844.97;5073821;28;20198;-73
2022/07/14 07:57:15;;;;;;;20.38;19.17;;;;;;;-141.02;100.00;55844.97;5073666;28;20258;-75
2022/07/14 07:59:42;;;;;;;20.10;18.90;;;;;;;-141.02;100.00;55844.97;5073795;28;20245;-73
2022/07/14 08:02:09;;;;;;;19.58;18.38;;;;;;;-141.02;100.00;55844.97;5073243;28;20705;-74
2022/07/14 08:04:36;;;;;;;19.90;18.70;;;;;;;-141.02;100.00;55844.97;5073175;28;20266;-73
2022/07/14 08:07:07;;;;;;;20.65;19.45;;;;;;;-141.02;100.00;55844.97;5073144;28;20230;-71
2022/07/14 08:09:34;;;;;;;20.13;18.92;;;;;;;-141.02;100.00;55844.97;5073262;28;20679;-74
2022/07/14 08:12:01;;;;;;;20.15;18.95;;;;;;;-141.02;100.00;55844.97;5073897;28;20226;-75
2022/07/14 08:17:12;;;;;;;21.02;19.73;;;;;;;-141.02;100.00;55844.97;5073691;28;20241;-74
2022/07/14 08:19:39;;;;;;;20.70;19.40;;;;;;;-141.02;100.00;55844.97;5073056;28;20222;-74
2022/07/14 08:22:08;;;;;;;22.65;21.25;;;;;;;-141.02;100.00;55844.97;5073225;28;20277;-72
2022/07/14 08:24:35;;;;;;;22.20;20.90;;;;;;;-141.02;100.00;55844.97;5073086;28;20252;-74
2022/07/14 08:27:02;;;;;;;21.02;19.73;;;;;;;-141.02;100.00;55844.97;5073595;28;20280;-72
2022/07/14 08:29:29;;;;;;;20.75;19.55;;;;;;;-141.02;100.00;55844.97;5073009;28;20681;-73
2022/07/14 08:31:56;;;;;;;20.85;19.55;;;;;;;-141.02;100.00;55844.97;5072957;28;20203;-72
2022/07/14 08:34:23;;;;;;;20.70;19.40;;;;;;;-141.02;100.00;55844.97;5072865;28;20194;-72
2022/07/14 08:36:50;;;;;;;20.75;19.48;;;;;;;-141.02;100.00;55844.97;5072765;28;20217;-74
2022/07/14 08:39:19;;;;;;;21.08;19.77;;;;;;;-141.02;100.00;55844.97;5072767;28;20237;-74
2022/07/14 08:41:47;;;;;;;21.00;19.70;;;;;;;-141.02;100.00;55844.97;5072483;28;20592;-74
2022/07/14 08:44:14;;;;;;;20.60;19.30;;;;;;;-141.02;100.00;55844.97;5072462;28;20191;-74
2022/07/14 08:46:41;;;;;;;20.88;19.58;;;;;;;-141.02;100.00;55844.97;5072449;28;20216;-72
2022/07/14 08:49:09;;;;;;;21.33;19.98;;;;;;;-141.02;100.00;55844.97;5072377;28;20317;-72
2022/07/14 08:51:40;;;;;;;20.90;19.60;;;;;;;-141.02;100.00;55844.97;5072648;28;20190;-73
2022/07/14 08:54:10;;;;;;;20.73;19.42;;;;;;;-141.02;100.00;55844.97;5072638;28;20270;-72
2022/07/14 08:56:39;;;;;;;20.80;19.50;;;;;;;-141.02;100.00;55844.97;5072620;28;20237;-73
2022/07/14 08:59:07;;;;;;;20.30;19.00;;;;;;;-141.02;100.00;55844.97;5072714;28;20225;-74
2022/07/14 09:01:34;;;;;;;20.10;18.80;;;;;;;-141.02;100.00;55844.97;5072742;28;20260;-72
2022/07/14 09:04:01;;;;;;;20.05;18.75;;;;;;;-141.02;100.00;55844.97;5072536;28;20200;-74
2022/07/14 09:06:52;;;;;;;19.83;18.52;;;;;;;-141.02;100.00;55844.97;5072112;28;20670;-72
2022/07/14 09:09:22;;;;;;;20.42;19.13;;;;;;;-141.02;100.00;55844.97;5072478;28;20186;-73
2022/07/14 09:11:56;;;;;;;20.58;19.27;;;;;;;-141.02;100.00;55844.97;5072445;28;20186;-73
2022/07/14 09:14:24;;;;;;;20.85;19.55;;;;;;;-141.02;100.00;55844.97;5072175;28;20687;-74
2022/07/14 09:16:52;;;;;;;21.60;20.20;;;;;;;-141.02;100.00;55844.97;5072281;28;20198;-75
2022/07/14 09:19:20;;;;;;;20.65;19.35;;;;;;;-141.02;100.00;55844.97;5072220;28;20234;-74
2022/07/14 09:21:55;;;;;;;20.65;19.35;;;;;;;-141.02;100.00;55844.97;5072227;28;20194;-74
2022/07/14 09:24:22;;;;;;;20.95;19.55;;;;;;;-141.02;100.00;55844.97;5072568;28;20201;-74
2022/07/14 09:26:53;;;;;;;21.20;19.80;;;;;;;-141.02;100.00;55844.97;5072203;28;20277;-74
2022/07/14 09:29:23;;;;;;;22.15;20.67;;;;;;;-141.02;100.00;55844.97;5071933;28;20220;-74
2022/07/14 09:31:50;;;;;;;21.55;20.15;;;;;;;-141.02;100.00;55844.97;5072089;28;20628;-75
2022/07/14 09:34:31;;;;;;;22.27;20.77;;;;;;;-141.02;100.00;55844.97;5072704;28;20233;-75
2022/07/14 09:37:13;;;;;;;21.42;20.02;;;;;;;-141.02;100.00;55844.97;5071876;28;20281;-74
2022/07/14 09:39:52;;;;;;;22.50;21.00;;;;;;;-141.02;100.00;55844.97;5072073;28;20600;-73
2022/07/14 09:42:20;;;;;;;22.42;20.98;;;;;;;-141.02;100.00;55844.97;5072112;28;20190;-74
2022/07/14 09:44:48;;;;;;;21.77;20.38;;;;;;;-141.02;100.00;55844.97;5072578;28;20732;-75
2022/07/14 09:47:15;;;;;;;22.10;20.65;;;;;;;-141.02;100.00;55844.97;5071989;28;20699;-72
2022/07/14 09:49:42;;;;;;;22.42;20.92;;;;;;;-141.02;100.00;55844.97;5072016;28;20198;-72
2022/07/14 09:52:09;;;;;;;21.52;20.13;;;;;;;-141.02;100.00;55844.97;5071659;28;20681;-72
2022/07/14 09:54:41;;;;;;;21.90;20.50;;;;;;;-141.02;100.00;55844.97;5071642;28;20198;-74
2022/07/14 09:57:08;;;;;;;22.75;21.25;;;;;;;-141.02;100.00;55844.97;5075667;28;20275;-73
2022/07/14 09:59:46;;;;;;;22.58;21.08;;;;;;;-141.02;100.00;55844.97;5075804;28;20262;-74
2022/07/14 10:02:18;;;;;;;22.17;20.67;;;;;;;-141.02;100.00;55844.97;5075866;28;20196;-74
2022/07/14 10:04:46;;;;;;;21.85;20.35;;;;;;;-141.02;100.00;55844.97;5075883;28;20225;-74
2022/07/14 10:07:14;;;;;;;21.90;20.40;;;;;;;-141.02;100.00;55844.97;5075469;28;20194;-73
2022/07/14 10:09:47;;;;;;;21.88;20.38;;;;;;;-141.02;100.00;55844.97;5075692;28;20220;-74
2022/07/14 10:12:14;;;;;;;21.77;20.38;;;;;;;-141.02;100.00;55844.97;5075732;28;20186;-75
2022/07/14 10:14:43;;;;;;;21.70;20.23;;;;;;;-141.02;100.00;55844.97;5075617;28;20289;-73
2022/07/14 10:17:13;;;;;;;21.65;20.17;;;;;;;-141.02;100.00;55844.97;5075304;28;20198;-74
2022/07/14 10:19:40;;;;;;;22.02;20.52;;;;;;;-141.02;100.00;55844.97;5076164;28;20226;-72
2022/07/14 10:22:08;;;;;;;22.27;20.77;;;;;;;-141.02;100.00;55844.97;5075150;28;20281;-75
2022/07/14 10:24:36;;;;;;;21.90;20.42;;;;;;;-141.02;100.00;55844.97;5075408;28;20226;-74
2022/07/14 10:27:05;;;;;;;21.70;20.25;;;;;;;-141.02;100.00;55844.97;5075065;28;20234;-73
2022/07/14 10:29:32;;;;;;;22.00;20.58;;;;;;;-141.02;100.00;55844.97;5075034;28;20580;-73
2022/07/14 10:32:13;;;;;;;21.85;20.35;;;;;;;-141.02;100.00;55844.97;5075231;28;20194;-74
2022/07/14 10:34:45;;;;;;;21.58;20.17;;;;;;;-141.02;100.00;55844.97;5075010;28;20672;-72
2022/07/14 10:37:21;;;;;;;22.42;20.92;;;;;;;-141.02;100.00;55844.97;5074921;28;20190;-72
2022/07/14 10:39:51;;;;;;;23.02;21.52;;;;;;;-141.02;100.00;55844.97;5075163;28;20649;-72
2022/07/14 10:42:26;;;;;;;21.75;20.27;;;;;;;-141.02;100.00;55844.97;5075297;28;20198;-74
2022/07/14 10:44:54;;;;;;;22.70;21.20;;;;;;;-141.02;100.00;55844.97;5075118;28;20198;-74
2022/07/14 10:47:24;;;;;;;22.55;21.05;;;;;;;-141.02;100.00;55844.97;5075245;28;20608;-73
2022/07/14 10:50:07;;;;;;;22.40;20.90;;;;;;;-141.02;100.00;55844.97;5075050;28;20194;-72
2022/07/14 10:52:36;;;;;;;22.73;21.23;;;;;;;-141.02;100.00;55844.97;5074993;28;20265;-72
2022/07/14 10:55:14;;;;;;;22.95;21.45;;;;;;;-141.02;100.00;55844.97;5074577;28;20201;-73
2022/07/14 10:58:21;;;;;;;21.83;20.40;;;;;;;-141.02;100.00;55844.97;5074380;28;20234;-73
2022/07/14 11:00:56;;;;;;;21.70;20.30;;;;;;;-141.02;100.00;55844.97;5074312;28;20583;-73
2022/07/14 11:03:29;;;;;;;22.02;20.58;;;;;;;-141.02;100.00;55844.97;5074745;28;20186;-73
2022/07/14 11:06:19;;;;;;;21.80;20.40;;;;;;;-141.02;100.00;55844.97;5074258;28;20194;-74
2022/07/14 11:09:07;;;;;;;21.90;20.40;;;;;;;-141.02;100.00;55844.97;5074684;28;20260;-73
2022/07/14 11:11:34;;;;;;;21.52;20.02;;;;;;;-141.02;100.00;55844.97;5074854;28;20198;-72